Terminal Aerodrome Forecast
Issued by NWS

Home | Current Version | Previous Version | Text Only | Print | Product List | Glossary On
Versions: 1 2 3 4 5 6 7 8 9 10 11 12
000
FTUS45 KABQ 201739
TAFFMN
TAF
KFMN 201739Z 2018/2118 09005KT P6SM BKN200
     FM202000 28009KT P6SM FEW150 BKN200
     FM210100 29006KT P6SM BKN200
     FM211700 28010G20KT P6SM FEW300=

USA.gov is the U.S. government's official web portal to all federal, state and local government web resources and services.